Time;durP1;ratioP1;P1;durP2;ratioP2;P2;SDS_P1;SDS_P2;PMS_P1;PMS_P2;Temp;Humidity;BMP_temperature;BMP_pressure;BME280_temperature;BME280_humidity;BME280_pressure;Samples;Min_cycle;Max_cycle;Signal;HPM_P1;HPM_P2
2023/09/29 00:01:33;;;;;;;18.53;16.80;;;;;;;15.92;100.00;100916.31;5054004;28;20216;-80
2023/09/29 00:03:59;;;;;;;18.33;16.73;;;;;;;15.88;100.00;100922.91;5051981;28;20221;-80
2023/09/29 00:06:26;;;;;;;17.47;15.93;;;;;;;15.86;100.00;100924.84;5054182;28;20254;-81
2023/09/29 00:08:52;;;;;;;17.40;15.83;;;;;;;15.84;100.00;100917.88;5049062;28;20680;-81
2023/09/29 00:11:20;;;;;;;15.77;14.40;;;;;;;15.81;100.00;100920.81;5057607;28;20603;-81
2023/09/29 00:13:47;;;;;;;16.07;14.50;;;;;;;15.80;100.00;100919.09;5055894;28;20230;-81
2023/09/29 00:16:13;;;;;;;17.57;16.03;;;;;;;15.79;100.00;100923.63;5054516;28;20210;-81
2023/09/29 00:18:40;;;;;;;19.17;17.30;;;;;;;15.78;100.00;100927.28;5057757;28;20687;-82
2023/09/29 00:21:06;;;;;;;20.03;18.00;;;;;;;15.77;100.00;100920.22;5053510;28;20209;-81
2023/09/29 00:23:32;;;;;;;21.77;19.57;;;;;;;15.79;100.00;100920.94;5058120;28;20233;-81
2023/09/29 00:25:59;;;;;;;20.50;18.50;;;;;;;15.79;100.00;100931.69;5059528;28;20220;-81
2023/09/29 00:28:27;;;;;;;21.80;19.30;;;;;;;15.79;100.00;100931.69;5058126;28;20205;-82
2023/09/29 00:30:53;;;;;;;21.40;19.37;;;;;;;15.78;100.00;100927.28;5047675;28;20219;-83
2023/09/29 00:33:21;;;;;;;21.90;19.63;;;;;;;15.79;100.00;100929.00;5058771;28;20604;-82
2023/09/29 00:35:47;;;;;;;20.17;18.27;;;;;;;15.78;100.00;100923.75;5054188;28;20205;-82
2023/09/29 00:38:14;;;;;;;19.60;17.63;;;;;;;15.76;100.00;100923.03;5051631;28;20200;-82
2023/09/29 00:40:40;;;;;;;20.50;18.77;;;;;;;15.73;100.00;100923.28;5050656;28;20233;-81
2023/09/29 00:43:08;;;;;;;19.17;17.47;;;;;;;15.69;100.00;100916.44;5050965;28;20803;-82
2023/09/29 00:45:36;;;;;;;20.13;18.23;;;;;;;15.67;100.00;100913.88;5056484;28;20234;-81
2023/09/29 00:48:07;;;;;;;19.40;17.60;;;;;;;15.65;100.00;100914.97;5050916;28;20245;-81
2023/09/29 00:50:35;;;;;;;19.37;17.37;;;;;;;15.61;100.00;100912.53;5049646;28;20281;-81
2023/09/29 00:53:07;;;;;;;19.30;17.53;;;;;;;15.57;100.00;100907.56;5047337;28;20299;-81
2023/09/29 00:55:36;;;;;;;19.67;17.57;;;;;;;15.54;100.00;100895.19;5054154;28;20287;-80
2023/09/29 00:58:05;;;;;;;20.60;17.97;;;;;;;15.51;100.00;100889.22;5056941;28;20211;-82
2023/09/29 01:00:35;;;;;;;19.33;17.53;;;;;;;15.49;100.00;100891.16;5053829;28;20241;-81
2023/09/29 01:03:06;;;;;;;20.03;18.23;;;;;;;15.48;100.00;100882.25;5048378;28;20220;-81
2023/09/29 01:05:35;;;;;;;19.10;17.30;;;;;;;15.49;100.00;100883.09;5052463;28;20254;-83
2023/09/29 01:08:05;;;;;;;20.37;18.40;;;;;;;15.48;100.00;100882.25;5051071;28;20209;-81
2023/09/29 01:10:32;;;;;;;20.47;18.67;;;;;;;15.49;100.00;100893.84;5053275;28;20228;-82
2023/09/29 01:12:58;;;;;;;19.40;17.43;;;;;;;15.50;100.00;100890.19;5052734;28;20268;-82
2023/09/29 01:15:25;;;;;;;19.20;17.47;;;;;;;15.52;100.00;100890.91;5053255;28;20205;-81
2023/09/29 01:17:52;;;;;;;18.97;17.17;;;;;;;15.54;100.00;100891.66;5053576;28;20208;-82
2023/09/29 01:20:25;;;;;;;19.57;17.80;;;;;;;15.56;100.00;100889.75;5053867;28;20216;-81
2023/09/29 01:22:52;;;;;;;19.10;17.40;;;;;;;15.57;100.00;100884.25;5049272;28;20224;-81
2023/09/29 01:25:20;;;;;;;20.20;18.30;;;;;;;15.58;100.00;100883.28;5047738;28;20204;-83
2023/09/29 01:27:48;;;;;;;19.10;17.20;;;;;;;15.59;100.00;100884.94;5050345;28;20708;-81
2023/09/29 01:30:15;;;;;;;18.53;16.73;;;;;;;15.60;100.00;100893.84;5053460;28;20445;-81
2023/09/29 01:32:43;;;;;;;18.87;17.03;;;;;;;15.59;100.00;100890.31;5054790;28;20235;-82
2023/09/29 01:35:11;;;;;;;19.67;17.87;;;;;;;15.58;100.00;100883.28;5047945;28;20698;-80
2023/09/29 01:37:39;;;;;;;20.13;18.23;;;;;;;15.57;100.00;100891.44;5057315;28;20209;-82
2023/09/29 01:40:08;;;;;;;20.53;18.63;;;;;;;15.56;100.00;100890.59;5055113;28;20227;-81
2023/09/29 01:42:36;;;;;;;21.07;18.67;;;;;;;15.56;100.00;100881.69;5051492;28;20226;-82
2023/09/29 01:45:02;;;;;;;20.37;18.40;;;;;;;15.56;100.00;100887.91;5052660;28;20692;-83
2023/09/29 01:47:30;;;;;;;19.10;17.23;;;;;;;15.56;100.00;100890.59;5058427;28;20261;-83
2023/09/29 01:49:56;;;;;;;19.97;18.07;;;;;;;15.57;100.00;100897.69;5055617;28;20241;-84
2023/09/29 01:52:23;;;;;;;20.73;18.87;;;;;;;15.57;100.00;100889.63;5050865;28;20234;-84
2023/09/29 01:54:50;;;;;;;20.47;18.47;;;;;;;15.57;100.00;100895.00;5057056;28;20666;-83
2023/09/29 01:57:16;;;;;;;21.63;19.33;;;;;;;15.56;100.00;100890.59;5047552;28;20673;-83
2023/09/29 01:59:44;;;;;;;21.70;19.70;;;;;;;15.57;100.00;100899.50;5052463;28;20243;-83
2023/09/29 02:02:11;;;;;;;20.73;18.90;;;;;;;15.56;100.00;100900.47;5056191;28;20249;-83
2023/09/29 02:04:37;;;;;;;20.57;18.67;;;;;;;15.56;100.00;100906.69;5051861;28;20208;-84
2023/09/29 02:07:04;;;;;;;19.20;17.23;;;;;;;15.57;100.00;100903.03;5056689;28;20205;-83
2023/09/29 02:09:30;;;;;;;23.17;19.93;;;;;;;15.58;100.00;100902.06;5056137;28;20287;-83
2023/09/29 02:11:57;;;;;;;21.67;18.43;;;;;;;15.57;100.00;100896.81;5054830;28;20232;-83
2023/09/29 02:14:24;;;;;;;20.60;18.70;;;;;;;15.57;100.00;100904.88;5052670;28;20209;-83
2023/09/29 02:16:51;;;;;;;20.07;18.27;;;;;;;15.56;100.00;100895.97;5049716;28;20202;-83
2023/09/29 02:19:18;;;;;;;21.77;19.33;;;;;;;15.54;100.00;100903.25;5054271;28;20211;-83
2023/09/29 02:21:45;;;;;;;19.53;17.73;;;;;;;15.51;100.00;100902.63;5054319;28;20227;-83
2023/09/29 02:24:12;;;;;;;19.13;17.13;;;;;;;15.48;100.00;100898.34;5049608;28;20330;-82
2023/09/29 02:26:38;;;;;;;19.53;17.70;;;;;;;15.47;100.00;100898.47;5055247;28;20213;-82
2023/09/29 02:29:05;;;;;;;20.87;18.83;;;;;;;15.44;100.00;100896.88;5053552;28;20581;-82
2023/09/29 02:31:31;;;;;;;19.70;17.70;;;;;;;15.43;100.00;100891.66;5055940;28;20211;-83
2023/09/29 02:33:59;;;;;;;20.03;18.20;;;;;;;15.43;100.00;100889.81;5066801;28;20227;-82
2023/09/29 02:36:26;;;;;;;20.40;18.40;;;;;;;15.43;100.00;100895.19;5057838;28;20493;-83
2023/09/29 02:38:52;;;;;;;20.87;18.77;;;;;;;15.43;100.00;100899.69;5055257;28;20238;-83
2023/09/29 02:41:20;;;;;;;22.50;18.20;;;;;;;15.43;100.00;100899.69;5058288;28;20212;-83
2023/09/29 02:43:47;;;;;;;20.97;19.07;;;;;;;15.45;100.00;100892.38;5065333;28;20260;-83
2023/09/29 02:46:15;;;;;;;21.17;18.93;;;;;;;15.44;100.00;100891.53;5054652;28;20334;-83
2023/09/29 02:48:41;;;;;;;21.00;18.97;;;;;;;15.46;100.00;100891.41;5064071;28;20234;-83
2023/09/29 02:51:16;;;;;;;21.00;18.97;;;;;;;15.47;100.00;100890.44;5054457;28;20216;-83
2023/09/29 02:53:42;;;;;;;21.53;19.43;;;;;;;15.47;100.00;100885.91;5051215;28;20259;-82
2023/09/29 02:56:11;;;;;;;22.20;19.87;;;;;;;15.49;100.00;100880.44;5057880;28;21185;-83
2023/09/29 02:58:38;;;;;;;22.90;20.60;;;;;;;15.50;100.00;100888.34;5056918;28;20358;-83
2023/09/29 03:01:07;;;;;;;22.50;20.27;;;;;;;15.51;100.00;100884.69;5058391;28;20854;-83
2023/09/29 03:03:34;;;;;;;21.57;19.40;;;;;;;15.52;100.00;100873.00;5058953;28;20780;-83
2023/09/29 03:06:00;;;;;;;22.90;20.60;;;;;;;15.54;100.00;100872.88;5060722;28;20213;-83
2023/09/29 03:08:29;;;;;;;22.60;20.47;;;;;;;15.55;100.00;100869.22;5059104;28;20238;-83
2023/09/29 03:10:55;;;;;;;23.23;20.83;;;;;;;15.57;100.00;100867.28;5055637;28;20239;-83
2023/09/29 03:13:22;;;;;;;23.00;20.77;;;;;;;15.58;100.00;100869.84;5056298;28;20231;-83
2023/09/29 03:15:48;;;;;;;22.90;20.73;;;;;;;15.59;100.00;100868.84;5062288;28;20214;-83
2023/09/29 03:18:15;;;;;;;22.20;20.10;;;;;;;15.62;100.00;100875.81;5053724;28;20218;-83
2023/09/29 03:20:41;;;;;;;23.03;20.93;;;;;;;15.64;100.00;100876.53;5063025;28;20215;-83
2023/09/29 03:23:08;;;;;;;25.63;20.43;;;;;;;15.65;100.00;100874.72;5053854;28;20221;-83
2023/09/29 03:25:37;;;;;;;22.47;20.20;;;;;;;15.67;100.00;100878.97;5056504;28;20683;-82
2023/09/29 03:28:04;;;;;;;21.07;19.03;;;;;;;15.69;100.00;100879.72;5047767;28;20235;-82
2023/09/29 03:30:32;;;;;;;20.40;18.60;;;;;;;15.69;100.00;100876.16;5052521;28;20198;-82
2023/09/29 03:32:58;;;;;;;19.77;17.87;;;;;;;15.65;100.00;100870.19;5058800;28;20230;-83
2023/09/29 03:35:25;;;;;;;18.63;16.67;;;;;;;15.62;100.00;100873.13;5055907;28;20212;-83
2023/09/29 03:37:51;;;;;;;17.70;16.20;;;;;;;15.60;100.00;100869.69;5050805;28;20673;-83
2023/09/29 03:40:18;;;;;;;19.07;17.07;;;;;;;15.58;100.00;100866.31;5051766;28;20233;-84
2023/09/29 03:42:46;;;;;;;20.10;18.23;;;;;;;15.58;100.00;100869.00;5062238;28;20231;-82
2023/09/29 03:45:14;;;;;;;19.43;17.43;;;;;;;15.58;100.00;100867.16;5059664;28;20295;-83
2023/09/29 03:47:41;;;;;;;18.97;17.13;;;;;;;15.60;100.00;100872.38;5051152;28;20208;-83
2023/09/29 03:50:10;;;;;;;19.93;18.13;;;;;;;15.60;100.00;100867.88;5045808;28;20235;-84
2023/09/29 03:52:37;;;;;;;19.43;17.57;;;;;;;15.61;100.00;100866.91;5060867;28;20237;-83
2023/09/29 03:55:03;;;;;;;19.20;17.37;;;;;;;15.61;100.00;100866.91;5055366;28;20771;-83
2023/09/29 03:57:32;;;;;;;18.70;16.93;;;;;;;15.61;100.00;100869.56;5054524;28;20209;-83
2023/09/29 03:59:59;;;;;;;19.33;17.53;;;;;;;15.63;100.00;100869.47;5052954;28;20222;-83
2023/09/29 04:02:26;;;;;;;17.83;16.13;;;;;;;15.64;100.00;100871.16;5060494;28;21012;-82
2023/09/29 04:04:52;;;;;;;17.80;15.50;;;;;;;15.66;100.00;100869.22;5053653;28;20200;-81
2023/09/29 04:07:19;;;;;;;18.03;15.97;;;;;;;15.69;100.00;100868.97;5049096;28;20206;-82
2023/09/29 04:09:46;;;;;;;18.50;16.70;;;;;;;15.72;100.00;100867.88;5051517;28;20205;-82
2023/09/29 04:12:12;;;;;;;16.97;15.37;;;;;;;15.74;100.00;100877.50;5044296;28;20721;-82
2023/09/29 04:14:39;;;;;;;17.77;15.90;;;;;;;15.77;100.00;100865.66;5052963;28;20197;-82
2023/09/29 04:17:07;;;;;;;18.33;16.53;;;;;;;15.78;100.00;100870.88;5055771;28;20783;-82
2023/09/29 04:19:35;;;;;;;18.87;16.20;;;;;;;15.80;100.00;100866.25;5049786;28;20211;-82
2023/09/29 04:22:01;;;;;;;18.17;16.43;;;;;;;15.82;100.00;100869.66;5050655;28;20249;-82
2023/09/29 04:24:28;;;;;;;17.67;15.63;;;;;;;15.84;100.00;100872.22;5049416;28;20200;-82
2023/09/29 04:26:54;;;;;;;17.80;16.30;;;;;;;15.86;100.00;100868.44;5060172;28;20202;-82
2023/09/29 04:29:21;;;;;;;17.00;15.33;;;;;;;15.86;100.00;100859.53;5053421;28;20209;-82
2023/09/29 04:31:48;;;;;;;17.20;15.53;;;;;;;15.87;100.00;100856.72;5055072;28;20819;-81
2023/09/29 04:34:16;;;;;;;16.97;15.47;;;;;;;15.87;100.00;100858.56;5057139;28;20225;-83
2023/09/29 04:36:43;;;;;;;17.30;15.60;;;;;;;15.87;100.00;100859.41;5056382;28;20201;-83
2023/09/29 04:39:09;;;;;;;17.20;15.47;;;;;;;15.87;100.00;100861.25;5057213;28;20297;-83
2023/09/29 04:41:37;;;;;;;15.43;14.13;;;;;;;15.87;100.00;100851.34;5053070;28;20209;-83
2023/09/29 04:44:05;;;;;;;16.63;14.93;;;;;;;15.88;100.00;100857.59;5058598;28;20222;-82
2023/09/29 04:46:33;;;;;;;16.00;14.40;;;;;;;15.87;100.00;100856.72;5057320;28;20203;-83
2023/09/29 04:49:00;;;;;;;14.70;13.30;;;;;;;15.87;100.00;100856.72;5058160;28;20214;-83
2023/09/29 04:51:28;;;;;;;14.43;13.03;;;;;;;15.88;100.00;100855.75;5056144;28;20210;-82
2023/09/29 04:53:54;;;;;;;11.53;10.43;;;;;;;15.92;100.00;100850.97;5058171;28;20703;-82
2023/09/29 04:56:21;;;;;;;8.23;7.47;;;;;;;15.99;100.00;100841.41;5059373;28;20205;-82
2023/09/29 04:58:47;;;;;;;7.60;7.00;;;;;;;16.05;100.00;100848.97;5053005;28;20957;-82
2023/09/29 05:01:17;;;;;;;7.00;6.30;;;;;;;16.10;100.00;100841.41;5064996;28;20262;-82
2023/09/29 05:03:44;;;;;;;6.83;6.13;;;;;;;16.15;100.00;100849.91;5055570;28;20227;-83
2023/09/29 05:06:10;;;;;;;7.27;5.90;;;;;;;16.21;100.00;100856.63;5057178;28;20201;-83
2023/09/29 05:08:39;;;;;;;6.90;6.17;;;;;;;16.27;100.00;100848.06;5055931;28;20268;-81
2023/09/29 05:11:05;;;;;;;5.93;5.33;;;;;;;16.31;100.00;100852.16;5050193;28;20661;-82
2023/09/29 05:13:33;;;;;;;6.17;5.57;;;;;;;16.37;100.00;100845.44;5052276;28;20245;-83
2023/09/29 05:15:59;;;;;;;6.27;5.67;;;;;;;16.41;100.00;100845.03;5056018;28;20213;-83
2023/09/29 05:18:26;;;;;;;5.80;5.20;;;;;;;16.46;100.00;100842.81;5061551;28;20205;-83
2023/09/29 05:20:52;;;;;;;6.30;5.67;;;;;;;16.50;100.00;100840.69;5053146;28;20220;-83
2023/09/29 05:23:19;;;;;;;5.90;5.30;;;;;;;16.55;100.00;100835.78;5052779;28;20236;-83
2023/09/29 05:25:47;;;;;;;5.33;4.83;;;;;;;16.59;100.00;100842.63;5056751;28;20210;-82
2023/09/29 05:28:14;;;;;;;14.93;5.23;;;;;;;16.63;100.00;100827.97;5062093;28;20216;-82
2023/09/29 05:30:44;;;;;;;6.03;5.03;;;;;;;16.68;100.00;100831.09;5057084;28;20539;-83
2023/09/29 05:33:11;;;;;;;5.60;4.70;;;;;;;16.73;100.00;100825.34;5053205;28;20685;-80
2023/09/29 05:35:37;;;;;;;5.53;4.70;;;;;;;16.76;100.00;100823.25;5056760;28;20210;-80
2023/09/29 05:38:04;;;;;;;5.27;4.83;;;;;;;16.81;100.00;100820.16;5055495;28;20203;-80
2023/09/29 05:40:31;;;;;;;4.50;4.10;;;;;;;16.85;100.00;100826.94;5062285;28;20202;-80
2023/09/29 05:42:58;;;;;;;6.57;5.20;;;;;;;16.88;100.00;100826.69;5056352;28;20231;-80
2023/09/29 05:45:25;;;;;;;4.83;4.30;;;;;;;16.90;100.00;100830.09;5057949;28;20675;-80
2023/09/29 05:47:51;;;;;;;6.63;4.97;;;;;;;16.97;100.00;100820.53;5056409;28;20658;-79
2023/09/29 05:50:18;;;;;;;6.10;4.40;;;;;;;17.02;100.00;100829.88;5057639;28;20203;-79
2023/09/29 05:52:45;;;;;;;4.53;4.10;;;;;;;17.07;100.00;100823.25;5058982;28;20723;-79
2023/09/29 05:55:11;;;;;;;6.97;4.67;;;;;;;17.10;100.00;100826.53;5055885;28;20206;-79
2023/09/29 05:57:38;;;;;;;5.63;4.00;;;;;;;17.16;100.00;100817.94;5056915;28;20202;-79
2023/09/29 06:00:08;;;;;;;4.67;4.07;;;;;;;17.23;100.00;100815.53;5057756;28;20739;-79
2023/09/29 06:02:35;;;;;;;7.93;4.43;;;;;;;17.25;100.00;100813.56;5056692;28;20768;-80
2023/09/29 06:05:01;;;;;;;5.83;4.20;;;;;;;17.27;100.00;100809.75;5056691;28;20210;-79
2023/09/29 06:07:28;;;;;;;5.30;4.07;;;;;;;17.37;100.00;100814.31;5057144;28;20211;-79
2023/09/29 06:09:54;;;;;;;6.43;4.47;;;;;;;17.39;100.00;100817.69;5057223;28;20252;-79
2023/09/29 06:12:21;;;;;;;5.23;4.73;;;;;;;17.42;100.00;100822.81;5057174;28;20230;-80
2023/09/29 06:14:47;;;;;;;6.43;4.27;;;;;;;17.45;100.00;100822.56;5057771;28;20314;-79
2023/09/29 06:17:15;;;;;;;4.60;4.03;;;;;;;17.50;100.00;100814.91;5056432;28;20544;-79
2023/09/29 06:19:42;;;;;;;4.03;3.73;;;;;;;17.55;100.00;100809.97;5054705;28;20204;-79
2023/09/29 06:22:08;;;;;;;4.97;4.33;;;;;;;17.53;100.00;100815.50;5058546;28;20811;-79
2023/09/29 06:24:35;;;;;;;7.13;5.13;;;;;;;17.56;100.00;100827.81;5056991;28;20216;-79
2023/09/29 06:27:01;;;;;;;6.80;4.60;;;;;;;17.57;100.00;100824.97;5058206;28;20204;-79
2023/09/29 06:29:28;;;;;;;4.37;3.97;;;;;;;17.62;100.00;100835.34;5050246;28;20774;-79
2023/09/29 06:31:54;;;;;;;6.57;4.33;;;;;;;17.64;100.00;100839.66;5054315;28;20207;-79
2023/09/29 06:34:22;;;;;;;5.50;4.07;;;;;;;17.68;100.00;100842.94;5043933;28;20521;-79
2023/09/29 06:36:49;;;;;;;4.67;4.00;;;;;;;17.70;100.00;100840.94;5057873;28;20207;-80
2023/09/29 06:39:15;;;;;;;5.67;4.07;;;;;;;17.74;100.00;100845.03;5056695;28;20201;-80
2023/09/29 06:41:42;;;;;;;4.90;4.13;;;;;;;17.74;100.00;100850.44;5048857;28;20210;-79
2023/09/29 06:44:09;;;;;;;4.07;3.67;;;;;;;17.76;100.00;100855.69;5056559;28;20249;-79
2023/09/29 06:46:35;;;;;;;7.50;4.30;;;;;;;17.77;100.00;100860.94;5044022;28;20208;-79
2023/09/29 06:49:02;;;;;;;6.47;4.70;;;;;;;17.80;100.00;100865.19;5055963;28;20229;-79
2023/09/29 06:51:30;;;;;;;7.43;5.20;;;;;;;17.81;100.00;100858.81;5056743;28;20203;-79
2023/09/29 06:53:56;;;;;;;8.37;5.03;;;;;;;17.81;100.00;100859.69;5055057;28;20230;-80
2023/09/29 06:56:23;;;;;;;6.23;5.50;;;;;;;17.81;100.00;100853.44;5054728;28;20221;-80
2023/09/29 06:58:50;;;;;;;6.30;5.70;;;;;;;17.81;100.00;100858.81;5044133;28;20225;-80
2023/09/29 07:01:16;;;;;;;6.23;5.27;;;;;;;17.81;100.00;100848.06;5043638;28;20241;-79
2023/09/29 07:03:45;;;;;;;10.93;6.90;;;;;;;17.79;100.00;100841.94;5053462;28;20803;-80
2023/09/29 07:06:11;;;;;;;9.30;5.93;;;;;;;17.79;100.00;100845.50;5057951;28;20212;-80
2023/09/29 07:08:39;;;;;;;6.93;6.13;;;;;;;17.83;100.00;100846.06;5060527;28;20681;-79
2023/09/29 07:11:06;;;;;;;6.80;6.03;;;;;;;17.83;100.00;100838.84;5051675;28;20681;-79
2023/09/29 07:13:32;;;;;;;7.07;6.37;;;;;;;17.85;100.00;100844.09;5055132;28;20235;-80
2023/09/29 07:15:59;;;;;;;9.27;6.10;;;;;;;17.86;100.00;100851.19;5058179;28;20215;-79
2023/09/29 07:18:25;;;;;;;6.70;5.63;;;;;;;17.86;100.00;100849.34;5059325;28;20204;-80
2023/09/29 07:20:53;;;;;;;7.40;5.40;;;;;;;17.90;100.00;100850.78;5049059;28;20208;-80
2023/09/29 07:23:20;;;;;;;6.20;5.10;;;;;;;17.91;100.00;100839.00;5040151;28;20839;-80
2023/09/29 07:25:48;;;;;;;6.83;5.70;;;;;;;17.94;100.00;100840.53;5044861;28;20212;-79
2023/09/29 07:28:16;;;;;;;5.87;5.10;;;;;;;17.95;100.00;100836.88;5060306;28;20207;-80
2023/09/29 07:30:43;;;;;;;6.30;5.43;;;;;;;17.99;100.00;100828.38;5060459;28;20257;-80
2023/09/29 07:33:10;;;;;;;8.80;5.33;;;;;;;18.03;100.00;100831.63;5059866;28;20719;-79
2023/09/29 07:35:36;;;;;;;7.43;5.00;;;;;;;18.08;100.00;100832.06;5060058;28;20237;-79
2023/09/29 07:38:03;;;;;;;6.13;4.97;;;;;;;18.12;100.00;100832.63;5044093;28;20204;-80
2023/09/29 07:40:30;;;;;;;6.90;4.50;;;;;;;18.15;100.00;100830.50;5060080;28;20209;-80
2023/09/29 07:42:58;;;;;;;6.43;5.50;;;;;;;18.19;100.00;100825.69;5058436;28;20266;-80
2023/09/29 07:45:25;;;;;;;6.93;5.07;;;;;;;18.20;100.00;100827.38;5059157;28;20207;-79
2023/09/29 07:47:51;;;;;;;9.90;5.37;;;;;;;18.25;100.00;100825.13;5058368;28;20216;-79
2023/09/29 07:50:19;;;;;;;5.57;4.63;;;;;;;18.28;100.00;100819.44;5058425;28;20208;-80
2023/09/29 07:52:45;;;;;;;7.27;5.17;;;;;;;18.33;100.00;100820.72;5056089;28;20229;-79
2023/09/29 07:55:12;;;;;;;5.77;5.10;;;;;;;18.34;100.00;100832.34;5049381;28;20627;-80
2023/09/29 07:57:39;;;;;;;7.20;5.37;;;;;;;18.33;100.00;100833.34;5058740;28;20197;-80
2023/09/29 08:00:10;;;;;;;5.83;4.83;;;;;;;18.35;100.00;100834.06;5046524;28;20681;-79
2023/09/29 08:02:37;;;;;;;5.70;4.70;;;;;;;18.37;100.00;100843.69;5051933;28;20589;-79
2023/09/29 08:05:04;;;;;;;5.17;4.37;;;;;;;18.36;100.00;100847.41;5058307;28;20219;-79
2023/09/29 08:07:31;;;;;;;4.90;4.33;;;;;;;18.40;100.00;100842.56;5058291;28;20219;-80
2023/09/29 08:09:57;;;;;;;6.47;4.57;;;;;;;18.44;100.00;100841.31;5058547;28;20208;-79
2023/09/29 08:12:24;;;;;;;13.13;5.47;;;;;;;18.47;100.00;100843.69;5059151;28;20218;-79
2023/09/29 08:14:51;;;;;;;8.23;5.13;;;;;;;18.50;100.00;100843.41;5058223;28;20224;-79
2023/09/29 08:17:19;;;;;;;6.60;4.87;;;;;;;18.56;100.00;100834.75;5057773;28;20668;-79
2023/09/29 08:19:47;;;;;;;5.77;5.00;;;;;;;18.58;100.00;100838.16;5057950;28;20208;-79
2023/09/29 08:22:13;;;;;;;6.40;4.83;;;;;;;18.62;100.00;100833.38;5056227;28;20225;-79
2023/09/29 08:24:40;;;;;;;5.70;4.27;;;;;;;18.65;100.00;100833.91;5053114;28;20199;-79
2023/09/29 08:27:06;;;;;;;6.23;5.27;;;;;;;18.69;100.00;100819.13;5055600;28;20230;-79
2023/09/29 08:29:34;;;;;;;6.53;4.30;;;;;;;18.71;100.00;100827.09;5056116;28;20274;-80
2023/09/29 08:32:01;;;;;;;5.17;4.00;;;;;;;18.70;100.00;100828.94;5064164;28;20247;-79
2023/09/29 08:34:31;;;;;;;5.03;4.53;;;;;;;18.71;100.00;100829.78;5056442;28;20681;-80
2023/09/29 08:36:57;;;;;;;7.40;5.07;;;;;;;18.75;100.00;100828.50;5046816;28;20205;-80
2023/09/29 08:39:24;;;;;;;4.53;4.13;;;;;;;18.82;100.00;100826.91;5057160;28;20221;-79
2023/09/29 08:41:58;;;;;;;4.53;4.10;;;;;;;18.85;100.00;100818.53;5057174;28;20296;-80
2023/09/29 08:44:27;;;;;;;6.03;4.33;;;;;;;18.90;98.37;100831.59;5057211;28;20214;-79
2023/09/29 08:46:58;;;;;;;5.73;4.63;;;;;;;18.91;98.72;100830.59;5055549;28;20201;-79
2023/09/29 08:49:25;;;;;;;5.47;4.03;;;;;;;18.97;97.73;100832.72;5041636;28;20198;-80
2023/09/29 08:51:55;;;;;;;5.50;4.10;;;;;;;19.01;97.52;100834.09;5045558;28;20215;-79
2023/09/29 08:54:24;;;;;;;7.50;4.63;;;;;;;19.03;97.08;100821.31;5055180;28;20689;-79
2023/09/29 08:56:51;;;;;;;5.20;4.07;;;;;;;19.05;96.01;100822.88;5057414;28;20211;-80
2023/09/29 08:59:18;;;;;;;5.80;4.10;;;;;;;19.10;96.42;100826.97;5056460;28;20202;-80
2023/09/29 09:01:46;;;;;;;5.13;3.83;;;;;;;19.12;96.38;100817.75;5056560;28;20219;-80
2023/09/29 09:04:12;;;;;;;4.80;4.07;;;;;;;19.18;95.77;100819.81;5056718;28;20227;-80
2023/09/29 09:06:40;;;;;;;5.33;4.07;;;;;;;19.25;94.76;100820.94;5051133;28;20206;-79
2023/09/29 09:09:09;;;;;;;9.10;3.90;;;;;;;19.29;94.06;100806.16;5055917;28;20716;-79
2023/09/29 09:11:42;;;;;;;4.33;3.30;;;;;;;19.37;94.06;100810.78;5055857;28;20245;-80
2023/09/29 09:14:10;;;;;;;5.63;3.97;;;;;;;19.42;92.47;100814.75;5044833;28;20660;-80
2023/09/29 09:16:38;;;;;;;5.43;3.33;;;;;;;19.46;91.39;100809.06;5048950;28;20204;-80
2023/09/29 09:19:12;;;;;;;3.73;3.33;;;;;;;19.51;91.03;100802.25;5046453;28;20269;-80
2023/09/29 09:21:39;;;;;;;4.50;3.50;;;;;;;19.54;89.74;100801.91;5039928;28;20216;-80
2023/09/29 09:24:05;;;;;;;5.63;3.37;;;;;;;19.60;89.94;100805.88;5052306;28;20621;-80
2023/09/29 09:26:33;;;;;;;4.97;3.40;;;;;;;19.63;89.89;100797.47;5041511;28;20310;-81
2023/09/29 09:29:09;;;;;;;7.33;3.80;;;;;;;19.68;89.34;100798.72;5042063;28;20225;-81
2023/09/29 09:31:46;;;;;;;4.33;3.27;;;;;;;19.74;88.45;100795.38;5055349;28;20229;-80
2023/09/29 09:34:13;;;;;;;4.70;3.77;;;;;;;19.80;87.99;100795.78;5054199;28;20234;-81
2023/09/29 09:36:53;;;;;;;3.73;3.43;;;;;;;19.85;88.00;100790.78;5056080;28;20604;-80
2023/09/29 09:39:24;;;;;;;4.30;3.50;;;;;;;19.88;88.29;100796.75;5048272;28;20450;-80
2023/09/29 09:41:57;;;;;;;3.70;2.93;;;;;;;19.97;87.37;100797.66;5054616;28;20203;-80
2023/09/29 09:44:25;;;;;;;4.38;3.75;;;;;;;20.02;87.60;100796.19;5052427;28;20257;-79
2023/09/29 09:46:54;;;;;;;4.37;3.07;;;;;;;20.09;87.80;100796.41;5052022;28;20220;-80
2023/09/29 09:49:24;;;;;;;4.87;3.77;;;;;;;20.16;88.00;100791.25;5052430;28;20208;-79
2023/09/29 09:51:53;;;;;;;4.82;3.83;;;;;;;20.22;87.79;100796.03;5052498;28;20201;-80
2023/09/29 09:54:22;;;;;;;4.88;3.78;;;;;;;20.25;88.05;100801.97;5050278;28;20221;-79
2023/09/29 09:56:55;;;;;;;5.37;3.63;;;;;;;20.31;88.30;100797.78;5051958;28;20204;-79
2023/09/29 09:59:27;;;;;;;4.75;4.10;;;;;;;20.36;88.09;100795.47;5051544;28;20290;-80
2023/09/29 10:01:54;;;;;;;6.20;4.30;;;;;;;20.39;88.20;100787.09;5057372;28;20208;-79
2023/09/29 10:04:24;;;;;;;4.22;3.83;;;;;;;20.42;88.20;100789.47;5049886;28;20209;-79
2023/09/29 10:06:51;;;;;;;5.10;4.00;;;;;;;20.46;88.07;100790.84;5057413;28;20258;-80
2023/09/29 10:09:18;;;;;;;5.15;3.80;;;;;;;20.50;87.94;100791.38;5051362;28;20285;-79
2023/09/29 10:11:47;;;;;;;5.82;3.83;;;;;;;20.54;87.11;100787.34;5057512;28;20210;-80
2023/09/29 10:14:13;;;;;;;3.78;3.35;;;;;;;20.54;87.24;100785.50;5054638;28;20246;-79
2023/09/29 10:16:41;;;;;;;4.32;3.58;;;;;;;20.57;87.46;100789.75;5062252;28;20204;-80
2023/09/29 10:19:12;;;;;;;6.55;4.30;;;;;;;20.61;86.84;100789.25;5052259;28;20216;-79
2023/09/29 10:21:43;;;;;;;4.15;3.60;;;;;;;20.66;86.51;100789.63;5056446;28;20698;-79
2023/09/29 10:24:12;;;;;;;6.85;4.07;;;;;;;20.69;85.93;100789.31;5058544;28;20217;-80
2023/09/29 10:26:46;;;;;;;5.45;3.92;;;;;;;20.74;85.61;100786.16;5062334;28;20208;-80
2023/09/29 10:29:19;;;;;;;7.22;3.78;;;;;;;20.78;85.83;100776.72;5053159;28;20208;-79
2023/09/29 10:31:49;;;;;;;5.95;3.90;;;;;;;20.83;85.30;100776.19;5058472;28;20200;-79
2023/09/29 10:34:21;;;;;;;5.15;4.32;;;;;;;20.85;85.08;100772.34;5054842;28;20229;-80
2023/09/29 10:36:53;;;;;;;6.53;3.95;;;;;;;20.91;85.13;100778.97;5051128;28;20246;-79
2023/09/29 10:39:25;;;;;;;4.05;3.65;;;;;;;20.93;84.68;100772.41;5051773;28;20208;-80
2023/09/29 10:41:59;;;;;;;4.72;3.85;;;;;;;20.97;84.03;100765.63;5057775;28;20206;-80
2023/09/29 10:44:27;;;;;;;7.30;3.60;;;;;;;20.99;83.09;100765.47;5058262;28;20192;-80
2023/09/29 10:46:55;;;;;;;4.93;3.78;;;;;;;21.03;83.63;100770.41;5058520;28;20748;-80
2023/09/29 10:49:31;;;;;;;6.25;3.80;;;;;;;21.10;83.95;100759.78;5060358;28;20224;-80
2023/09/29 10:51:58;;;;;;;4.93;3.70;;;;;;;21.15;84.01;100762.81;5061491;28;20205;-80
2023/09/29 10:54:24;;;;;;;4.50;3.83;;;;;;;21.25;83.62;100760.88;5062085;28;20193;-80
2023/09/29 10:56:50;;;;;;;6.45;3.30;;;;;;;21.33;82.35;100760.06;5057410;28;20240;-80
2023/09/29 10:59:17;;;;;;;3.80;3.42;;;;;;;21.41;82.72;100760.09;5055190;28;20218;-80
2023/09/29 11:01:44;;;;;;;4.10;3.58;;;;;;;21.51;82.21;100749.09;5059710;28;20200;-80
2023/09/29 11:04:12;;;;;;;4.65;3.28;;;;;;;21.61;81.73;100747.97;5058912;28;20232;-80
2023/09/29 11:06:45;;;;;;;4.40;3.70;;;;;;;21.73;80.96;100748.47;5059957;28;20205;-80
2023/09/29 11:09:17;;;;;;;5.28;3.28;;;;;;;21.87;80.49;100733.41;5055622;28;20245;-80
2023/09/29 11:11:44;;;;;;;4.10;3.40;;;;;;;21.96;78.04;100744.13;5062007;28;20262;-79
2023/09/29 11:14:10;;;;;;;4.28;3.70;;;;;;;22.08;78.39;100744.66;5058992;28;20278;-80